Terminal Aerodrome Forecast
Issued by NWS Mt. Holly, NJ

Home | Current Version | Previous Version | Text Only | Print | Product List | Glossary On
Versions: 1 2 3 4 5 6 7 8 9 10 11 12 13 14 15 16 17
000
FTUS41 KPHI 040538
TAFILG
TAF
KILG 040538Z 0406/0506 VRB03KT 4SM BR BKN250
     FM041000 05006KT P6SM SCT080
     FM041600 08010KT P6SM BKN050
      TEMPO 0416/0420 -SHRA
     FM050500 05008KT P6SM SCT050 BKN100=

USA.gov is the U.S. government's official web portal to all federal, state and local government web resources and services.